TAF LEBR
METAR LEBR
LEBR 080300Z AUTO 33006KT 280V010 9999 NSC 07/03 Q1008=
LEBR 080230Z AUTO 31004KT 240V010 9999 NSC 06/03 Q1008=
LEBR 080200Z AUTO VRB03KT 9999 NCD 06/05 Q1008=
LEBR 080130Z AUTO 33004KT 250V040 9999 NCD 07/06 Q1008=
LEBR 080100Z AUTO 32005KT 9999 NCD 07/06 Q1007=
WC LEBR
WS LEBR
WV LEBR